sensor_id;sensor_type;location;lat;lon;timestamp;temperature;humidity
12452;DHT22;6291;48.924;12.204;2023-04-15T00:01:16;6.60;1.00
12452;DHT22;6291;48.924;12.204;2023-04-15T00:06:21;6.70;1.00
12452;DHT22;6291;48.924;12.204;2023-04-15T00:11:26;6.70;1.00
12452;DHT22;6291;48.924;12.204;2023-04-15T00:16:29;6.70;1.00
12452;DHT22;6291;48.924;12.204;2023-04-15T00:21:33;6.90;1.00
12452;DHT22;6291;48.924;12.204;2023-04-15T00:26:38;6.80;1.00
12452;DHT22;6291;48.924;12.204;2023-04-15T00:31:41;6.80;1.00
12452;DHT22;6291;48.924;12.204;2023-04-15T00:36:46;6.70;1.00
12452;DHT22;6291;48.924;12.204;2023-04-15T00:41:51;6.70;1.00
12452;DHT22;6291;48.924;12.204;2023-04-15T00:46:56;6.80;1.00
12452;DHT22;6291;48.924;12.204;2023-04-15T00:52:00;6.80;1.00
12452;DHT22;6291;48.924;12.204;2023-04-15T00:57:06;6.80;1.00
12452;DHT22;6291;48.924;12.204;2023-04-15T01:02:09;6.90;1.00
12452;DHT22;6291;48.924;12.204;2023-04-15T01:07:13;6.90;1.00
12452;DHT22;6291;48.924;12.204;2023-04-15T01:12:19;6.90;1.00
12452;DHT22;6291;48.924;12.204;2023-04-15T01:17:23;6.90;1.00
12452;DHT22;6291;48.924;12.204;2023-04-15T01:22:26;7.00;1.00
12452;DHT22;6291;48.924;12.204;2023-04-15T01:27:31;7.00;1.00
12452;DHT22;6291;48.924;12.204;2023-04-15T01:32:36;7.10;1.00
12452;DHT22;6291;48.924;12.204;2023-04-15T01:37:39;7.10;1.00
12452;DHT22;6291;48.924;12.204;2023-04-15T01:42:44;7.10;1.00
12452;DHT22;6291;48.924;12.204;2023-04-15T01:47:49;7.10;1.00
12452;DHT22;6291;48.924;12.204;2023-04-15T01:52:52;7.10;1.00
12452;DHT22;6291;48.924;12.204;2023-04-15T01:57:57;7.00;1.00
12452;DHT22;6291;48.924;12.204;2023-04-15T02:03:00;7.10;1.00
12452;DHT22;6291;48.924;12.204;2023-04-15T02:08:04;7.10;99.90
12452;DHT22;6291;48.924;12.204;2023-04-15T02:13:09;7.00;1.00
12452;DHT22;6291;48.924;12.204;2023-04-15T02:18:13;7.60;1.00
12452;DHT22;6291;48.924;12.204;2023-04-15T02:23:17;6.90;1.00
12452;DHT22;6291;48.924;12.204;2023-04-15T02:28:22;6.90;1.00
12452;DHT22;6291;48.924;12.204;2023-04-15T02:33:25;6.90;1.00
12452;DHT22;6291;48.924;12.204;2023-04-15T02:38:28;6.80;1.00
12452;DHT22;6291;48.924;12.204;2023-04-15T02:43:34;6.90;1.00
12452;DHT22;6291;48.924;12.204;2023-04-15T02:48:38;6.70;1.00
12452;DHT22;6291;48.924;12.204;2023-04-15T02:53:42;6.70;1.00
12452;DHT22;6291;48.924;12.204;2023-04-15T02:58:47;6.80;1.00
12452;DHT22;6291;48.924;12.204;2023-04-15T03:03:52;6.80;1.00
12452;DHT22;6291;48.924;12.204;2023-04-15T03:08:55;6.70;1.00
12452;DHT22;6291;48.924;12.204;2023-04-15T03:14:00;6.50;99.90
12452;DHT22;6291;48.924;12.204;2023-04-15T03:19:08;6.60;99.90
12452;DHT22;6291;48.924;12.204;2023-04-15T03:24:14;6.60;1.00
12452;DHT22;6291;48.924;12.204;2023-04-15T03:29:20;6.40;99.90
12452;DHT22;6291;48.924;12.204;2023-04-15T03:34:23;6.40;1.00
12452;DHT22;6291;48.924;12.204;2023-04-15T03:39:27;6.40;23.30
12452;DHT22;6291;48.924;12.204;2023-04-15T03:44:31;6.30;1.00
12452;DHT22;6291;48.924;12.204;2023-04-15T03:49:35;6.40;1.00
12452;DHT22;6291;48.924;12.204;2023-04-15T03:54:38;6.30;1.00
12452;DHT22;6291;48.924;12.204;2023-04-15T03:59:43;6.20;73.20
12452;DHT22;6291;48.924;12.204;2023-04-15T04:04:46;6.10;99.90
12452;DHT22;6291;48.924;12.204;2023-04-15T04:09:50;6.10;1.00
12452;DHT22;6291;48.924;12.204;2023-04-15T04:14:55;6.10;1.00
12452;DHT22;6291;48.924;12.204;2023-04-15T04:19:58;6.10;1.00
12452;DHT22;6291;48.924;12.204;2023-04-15T04:25:01;6.10;99.90
12452;DHT22;6291;48.924;12.204;2023-04-15T04:30:07;6.10;1.00
12452;DHT22;6291;48.924;12.204;2023-04-15T04:35:11;6.10;1.00
12452;DHT22;6291;48.924;12.204;2023-04-15T04:40:14;6.10;1.00
12452;DHT22;6291;48.924;12.204;2023-04-15T04:45:19;6.10;99.90
12452;DHT22;6291;48.924;12.204;2023-04-15T04:50:23;6.00;99.90
12452;DHT22;6291;48.924;12.204;2023-04-15T04:55:26;6.00;99.90
12452;DHT22;6291;48.924;12.204;2023-04-15T05:00:31;6.10;99.90
12452;DHT22;6291;48.924;12.204;2023-04-15T05:05:34;6.10;1.00
12452;DHT22;6291;48.924;12.204;2023-04-15T05:10:37;6.10;25.30
12452;DHT22;6291;48.924;12.204;2023-04-15T05:15:42;6.10;1.00
12452;DHT22;6291;48.924;12.204;2023-04-15T05:20:46;6.10;99.90
12452;DHT22;6291;48.924;12.204;2023-04-15T05:25:50;6.00;99.90
12452;DHT22;6291;48.924;12.204;2023-04-15T05:30:55;6.00;1.00
12452;DHT22;6291;48.924;12.204;2023-04-15T05:35:59;5.90;99.90
12452;DHT22;6291;48.924;12.204;2023-04-15T05:41:02;6.00;1.00
12452;DHT22;6291;48.924;12.204;2023-04-15T05:46:07;6.00;99.90
12452;DHT22;6291;48.924;12.204;2023-04-15T05:51:10;6.20;96.70
12452;DHT22;6291;48.924;12.204;2023-04-15T05:56:14;6.10;1.00
12452;DHT22;6291;48.924;12.204;2023-04-15T06:01:22;6.10;99.90
12452;DHT22;6291;48.924;12.204;2023-04-15T06:06:26;6.10;1.00
12452;DHT22;6291;48.924;12.204;2023-04-15T06:11:29;6.00;99.90
12452;DHT22;6291;48.924;12.204;2023-04-15T06:16:34;6.00;1.00
12452;DHT22;6291;48.924;12.204;2023-04-15T06:21:38;6.10;99.90
12452;DHT22;6291;48.924;12.204;2023-04-15T06:26:42;6.90;61.10
12452;DHT22;6291;48.924;12.204;2023-04-15T06:31:47;6.00;99.90
12452;DHT22;6291;48.924;12.204;2023-04-15T06:36:51;6.00;99.90
12452;DHT22;6291;48.924;12.204;2023-04-15T06:41:55;6.00;1.00
12452;DHT22;6291;48.924;12.204;2023-04-15T06:47:00;6.30;1.00
12452;DHT22;6291;48.924;12.204;2023-04-15T06:52:03;6.20;1.00
12452;DHT22;6291;48.924;12.204;2023-04-15T06:57:07;6.10;99.90
12452;DHT22;6291;48.924;12.204;2023-04-15T07:02:12;6.10;1.00
12452;DHT22;6291;48.924;12.204;2023-04-15T07:07:15;6.20;99.90
12452;DHT22;6291;48.924;12.204;2023-04-15T07:12:19;6.10;1.00
12452;DHT22;6291;48.924;12.204;2023-04-15T07:17:24;6.10;1.00
12452;DHT22;6291;48.924;12.204;2023-04-15T07:22:28;6.20;1.00
12452;DHT22;6291;48.924;12.204;2023-04-15T07:27:32;6.30;99.90
12452;DHT22;6291;48.924;12.204;2023-04-15T07:32:36;6.30;99.90
12452;DHT22;6291;48.924;12.204;2023-04-15T07:37:40;6.20;99.90
12452;DHT22;6291;48.924;12.204;2023-04-15T07:42:44;6.40;99.90
12452;DHT22;6291;48.924;12.204;2023-04-15T07:47:50;6.40;99.90
12452;DHT22;6291;48.924;12.204;2023-04-15T07:52:54;6.50;99.90
12452;DHT22;6291;48.924;12.204;2023-04-15T07:57:58;6.50;1.00
12452;DHT22;6291;48.924;12.204;2023-04-15T08:03:03;6.70;99.90
12452;DHT22;6291;48.924;12.204;2023-04-15T08:08:08;6.90;26.80
12452;DHT22;6291;48.924;12.204;2023-04-15T08:13:11;6.70;99.90
12452;DHT22;6291;48.924;12.204;2023-04-15T08:18:16;6.60;1.00
12452;DHT22;6291;48.924;12.204;2023-04-15T08:23:19;6.70;99.90
12452;DHT22;6291;48.924;12.204;2023-04-15T08:28:23;6.60;1.00
12452;DHT22;6291;48.924;12.204;2023-04-15T08:33:28;6.80;1.00
12452;DHT22;6291;48.924;12.204;2023-04-15T08:38:31;6.90;99.90
12452;DHT22;6291;48.924;12.204;2023-04-15T08:43:43;7.00;1.00
12452;DHT22;6291;48.924;12.204;2023-04-15T08:48:50;6.80;99.90
12452;DHT22;6291;48.924;12.204;2023-04-15T08:53:54;6.90;99.90
12452;DHT22;6291;48.924;12.204;2023-04-15T08:58:58;7.00;1.00
12452;DHT22;6291;48.924;12.204;2023-04-15T09:04:04;7.00;20.20
12452;DHT22;6291;48.924;12.204;2023-04-15T09:09:09;6.90;1.00
12452;DHT22;6291;48.924;12.204;2023-04-15T09:14:12;7.00;5.80
12452;DHT22;6291;48.924;12.204;2023-04-15T09:19:22;7.10;99.90
12452;DHT22;6291;48.924;12.204;2023-04-15T09:24:35;7.20;99.90
12452;DHT22;6291;48.924;12.204;2023-04-15T09:29:40;7.40;1.00
12452;DHT22;6291;48.924;12.204;2023-04-15T09:34:45;7.50;1.00
12452;DHT22;6291;48.924;12.204;2023-04-15T09:39:50;7.20;21.30
12452;DHT22;6291;48.924;12.204;2023-04-15T09:44:54;7.20;99.90
12452;DHT22;6291;48.924;12.204;2023-04-15T09:49:59;7.20;94.70
12452;DHT22;6291;48.924;12.204;2023-04-15T09:55:05;7.60;1.00
12452;DHT22;6291;48.924;12.204;2023-04-15T10:00:09;7.50;1.00
12452;DHT22;6291;48.924;12.204;2023-04-15T10:05:15;7.60;1.00
12452;DHT22;6291;48.924;12.204;2023-04-15T10:10:19;7.80;1.00
12452;DHT22;6291;48.924;12.204;2023-04-15T10:15:23;7.80;1.00
12452;DHT22;6291;48.924;12.204;2023-04-15T10:20:29;7.80;1.00
12452;DHT22;6291;48.924;12.204;2023-04-15T10:25:33;7.70;1.00
12452;DHT22;6291;48.924;12.204;2023-04-15T10:30:36;7.80;1.00
12452;DHT22;6291;48.924;12.204;2023-04-15T10:35:42;7.90;1.00
12452;DHT22;6291;48.924;12.204;2023-04-15T10:40:49;7.40;99.90
12452;DHT22;6291;48.924;12.204;2023-04-15T10:45:53;8.60;99.90
12452;DHT22;6291;48.924;12.204;2023-04-15T10:51:00;8.30;99.90
12452;DHT22;6291;48.924;12.204;2023-04-15T10:56:05;8.20;99.90
12452;DHT22;6291;48.924;12.204;2023-04-15T11:01:08;8.40;99.90
12452;DHT22;6291;48.924;12.204;2023-04-15T11:06:14;9.20;99.90
12452;DHT22;6291;48.924;12.204;2023-04-15T11:11:17;9.70;99.90
12452;DHT22;6291;48.924;12.204;2023-04-15T11:16:21;9.00;99.90
12452;DHT22;6291;48.924;12.204;2023-04-15T11:21:25;9.10;99.90
12452;DHT22;6291;48.924;12.204;2023-04-15T11:26:30;9.00;99.90
12452;DHT22;6291;48.924;12.204;2023-04-15T11:31:33;8.90;99.90
12452;DHT22;6291;48.924;12.204;2023-04-15T11:36:42;8.70;99.90
12452;DHT22;6291;48.924;12.204;2023-04-15T11:41:46;8.80;99.90
12452;DHT22;6291;48.924;12.204;2023-04-15T11:46:49;8.70;99.90
12452;DHT22;6291;48.924;12.204;2023-04-15T11:51:54;8.70;99.90
12452;DHT22;6291;48.924;12.204;2023-04-15T11:56:58;8.60;99.90
12452;DHT22;6291;48.924;12.204;2023-04-15T12:02:11;8.60;99.90
12452;DHT22;6291;48.924;12.204;2023-04-15T12:07:17;8.80;99.90
12452;DHT22;6291;48.924;12.204;2023-04-15T12:12:20;8.50;99.90
12452;DHT22;6291;48.924;12.204;2023-04-15T12:17:24;8.80;99.90
12452;DHT22;6291;48.924;12.204;2023-04-15T12:22:36;9.00;99.90
12452;DHT22;6291;48.924;12.204;2023-04-15T12:27:40;9.00;99.90
12452;DHT22;6291;48.924;12.204;2023-04-15T12:32:45;8.80;99.90
12452;DHT22;6291;48.924;12.204;2023-04-15T12:37:50;8.90;99.90
12452;DHT22;6291;48.924;12.204;2023-04-15T12:42:54;9.00;99.90
12452;DHT22;6291;48.924;12.204;2023-04-15T12:47:58;8.90;99.90
12452;DHT22;6291;48.924;12.204;2023-04-15T12:53:03;9.00;99.90
12452;DHT22;6291;48.924;12.204;2023-04-15T12:58:06;9.00;99.90
12452;DHT22;6291;48.924;12.204;2023-04-15T13:03:10;8.80;99.90
12452;DHT22;6291;48.924;12.204;2023-04-15T13:08:15;8.70;99.90
12452;DHT22;6291;48.924;12.204;2023-04-15T13:13:19;8.70;99.90
12452;DHT22;6291;48.924;12.204;2023-04-15T13:18:24;8.70;99.90
12452;DHT22;6291;48.924;12.204;2023-04-15T13:23:29;8.60;99.90
12452;DHT22;6291;48.924;12.204;2023-04-15T13:28:32;8.50;99.90
12452;DHT22;6291;48.924;12.204;2023-04-15T13:33:36;8.50;99.90
12452;DHT22;6291;48.924;12.204;2023-04-15T13:38:41;8.60;99.90
12452;DHT22;6291;48.924;12.204;2023-04-15T13:43:44;8.40;99.90
12452;DHT22;6291;48.924;12.204;2023-04-15T13:48:48;8.50;99.90
12452;DHT22;6291;48.924;12.204;2023-04-15T13:53:53;8.40;99.90
12452;DHT22;6291;48.924;12.204;2023-04-15T13:58:56;8.50;99.90
12452;DHT22;6291;48.924;12.204;2023-04-15T14:04:03;8.50;99.90
12452;DHT22;6291;48.924;12.204;2023-04-15T14:09:08;8.40;99.90
12452;DHT22;6291;48.924;12.204;2023-04-15T14:14:12;8.80;99.90
12452;DHT22;6291;48.924;12.204;2023-04-15T14:19:17;9.10;99.90
12452;DHT22;6291;48.924;12.204;2023-04-15T14:24:22;9.30;99.90
12452;DHT22;6291;48.924;12.204;2023-04-15T14:29:27;9.50;99.90
12452;DHT22;6291;48.924;12.204;2023-04-15T14:34:30;9.20;99.90
12452;DHT22;6291;48.924;12.204;2023-04-15T14:39:35;8.90;99.90
12452;DHT22;6291;48.924;12.204;2023-04-15T14:44:38;8.70;99.90
12452;DHT22;6291;48.924;12.204;2023-04-15T14:49:41;8.70;99.90
12452;DHT22;6291;48.924;12.204;2023-04-15T14:54:46;5.50;99.90
12452;DHT22;6291;48.924;12.204;2023-04-15T14:59:50;9.00;99.90
12452;DHT22;6291;48.924;12.204;2023-04-15T15:04:59;8.80;99.90
12452;DHT22;6291;48.924;12.204;2023-04-15T15:10:05;8.90;99.90
12452;DHT22;6291;48.924;12.204;2023-04-15T15:15:10;8.80;99.90
12452;DHT22;6291;48.924;12.204;2023-04-15T15:20:30;8.70;99.90
12452;DHT22;6291;48.924;12.204;2023-04-15T15:25:35;8.70;99.90
12452;DHT22;6291;48.924;12.204;2023-04-15T15:30:39;8.80;99.90
12452;DHT22;6291;48.924;12.204;2023-04-15T15:35:42;8.60;99.90
12452;DHT22;6291;48.924;12.204;2023-04-15T15:40:47;8.50;99.90
12452;DHT22;6291;48.924;12.204;2023-04-15T15:45:51;8.50;99.90
12452;DHT22;6291;48.924;12.204;2023-04-15T15:50:56;8.40;99.90
12452;DHT22;6291;48.924;12.204;2023-04-15T15:56:01;8.30;99.90
12452;DHT22;6291;48.924;12.204;2023-04-15T16:01:05;8.50;99.90
12452;DHT22;6291;48.924;12.204;2023-04-15T16:06:09;8.30;99.90
12452;DHT22;6291;48.924;12.204;2023-04-15T16:11:14;8.30;1.00
12452;DHT22;6291;48.924;12.204;2023-04-15T16:16:18;8.20;99.90
12452;DHT22;6291;48.924;12.204;2023-04-15T16:21:21;8.20;1.00
12452;DHT22;6291;48.924;12.204;2023-04-15T16:26:27;8.10;1.00
12452;DHT22;6291;48.924;12.204;2023-04-15T16:31:31;8.10;1.00
12452;DHT22;6291;48.924;12.204;2023-04-15T16:36:35;8.00;1.00
12452;DHT22;6291;48.924;12.204;2023-04-15T16:41:42;8.00;1.00
12452;DHT22;6291;48.924;12.204;2023-04-15T16:46:45;8.10;1.00
12452;DHT22;6291;48.924;12.204;2023-04-15T16:51:51;8.30;1.00
12452;DHT22;6291;48.924;12.204;2023-04-15T16:56:56;8.20;1.00
12452;DHT22;6291;48.924;12.204;2023-04-15T17:02:00;8.20;1.00
12452;DHT22;6291;48.924;12.204;2023-04-15T17:07:04;8.30;1.00
12452;DHT22;6291;48.924;12.204;2023-04-15T17:12:08;8.20;1.00
12452;DHT22;6291;48.924;12.204;2023-04-15T17:17:12;8.20;1.00
12452;DHT22;6291;48.924;12.204;2023-04-15T17:22:17;8.20;1.00
12452;DHT22;6291;48.924;12.204;2023-04-15T17:27:22;8.20;1.00
12452;DHT22;6291;48.924;12.204;2023-04-15T17:32:25;8.00;1.00
12452;DHT22;6291;48.924;12.204;2023-04-15T17:37:33;8.00;1.00
12452;DHT22;6291;48.924;12.204;2023-04-15T17:42:38;7.90;1.00
12452;DHT22;6291;48.924;12.204;2023-04-15T17:47:41;8.00;1.00
12452;DHT22;6291;48.924;12.204;2023-04-15T17:52:45;8.30;1.00
12452;DHT22;6291;48.924;12.204;2023-04-15T17:57:50;7.90;22.30
12452;DHT22;6291;48.924;12.204;2023-04-15T18:02:53;7.90;91.80
12452;DHT22;6291;48.924;12.204;2023-04-15T18:07:57;8.00;1.00
12452;DHT22;6291;48.924;12.204;2023-04-15T18:13:02;8.00;1.00
12452;DHT22;6291;48.924;12.204;2023-04-15T18:18:05;7.90;1.00
12452;DHT22;6291;48.924;12.204;2023-04-15T18:23:09;7.80;1.00
12452;DHT22;6291;48.924;12.204;2023-04-15T18:28:14;7.70;99.90
12452;DHT22;6291;48.924;12.204;2023-04-15T18:33:17;7.70;99.90
12452;DHT22;6291;48.924;12.204;2023-04-15T18:38:20;9.70;99.90
12452;DHT22;6291;48.924;12.204;2023-04-15T18:43:25;7.60;99.90
12452;DHT22;6291;48.924;12.204;2023-04-15T18:48:28;7.60;1.00
12452;DHT22;6291;48.924;12.204;2023-04-15T18:53:32;7.60;99.90
12452;DHT22;6291;48.924;12.204;2023-04-15T18:58:37;7.60;1.00
12452;DHT22;6291;48.924;12.204;2023-04-15T19:04:01;7.60;1.00
12452;DHT22;6291;48.924;12.204;2023-04-15T19:09:05;7.60;1.00
12452;DHT22;6291;48.924;12.204;2023-04-15T19:14:10;7.50;85.70
12452;DHT22;6291;48.924;12.204;2023-04-15T19:19:14;10.00;1.00
12452;DHT22;6291;48.924;12.204;2023-04-15T19:24:17;7.50;67.50
12452;DHT22;6291;48.924;12.204;2023-04-15T19:29:22;7.50;1.00
12452;DHT22;6291;48.924;12.204;2023-04-15T19:34:26;7.40;1.00
12452;DHT22;6291;48.924;12.204;2023-04-15T19:39:29;7.40;99.90
12452;DHT22;6291;48.924;12.204;2023-04-15T19:44:34;7.40;99.90
12452;DHT22;6291;48.924;12.204;2023-04-15T19:49:38;7.40;1.00
12452;DHT22;6291;48.924;12.204;2023-04-15T19:54:41;7.30;99.90
12452;DHT22;6291;48.924;12.204;2023-04-15T19:59:46;7.30;1.00
12452;DHT22;6291;48.924;12.204;2023-04-15T20:04:49;7.30;99.90
12452;DHT22;6291;48.924;12.204;2023-04-15T20:09:53;7.30;69.10
12452;DHT22;6291;48.924;12.204;2023-04-15T20:14:58;7.20;99.90
12452;DHT22;6291;48.924;12.204;2023-04-15T20:20:02;7.10;82.60
12452;DHT22;6291;48.924;12.204;2023-04-15T20:25:06;7.20;5.70
12452;DHT22;6291;48.924;12.204;2023-04-15T20:30:11;7.10;99.90
12452;DHT22;6291;48.924;12.204;2023-04-15T20:35:15;7.10;99.90
12452;DHT22;6291;48.924;12.204;2023-04-15T20:40:18;7.10;8.90
12452;DHT22;6291;48.924;12.204;2023-04-15T20:45:23;7.10;99.90
12452;DHT22;6291;48.924;12.204;2023-04-15T20:50:27;7.10;99.90
12452;DHT22;6291;48.924;12.204;2023-04-15T20:55:30;7.10;99.90
12452;DHT22;6291;48.924;12.204;2023-04-15T21:00:35;7.10;99.90
12452;DHT22;6291;48.924;12.204;2023-04-15T21:05:38;7.20;1.00
12452;DHT22;6291;48.924;12.204;2023-04-15T21:10:42;7.20;24.10
12452;DHT22;6291;48.924;12.204;2023-04-15T21:15:47;7.20;1.00
12452;DHT22;6291;48.924;12.204;2023-04-15T21:20:55;9.80;99.90
12452;DHT22;6291;48.924;12.204;2023-04-15T21:25:58;7.20;37.90
12452;DHT22;6291;48.924;12.204;2023-04-15T21:31:03;7.20;99.90
12452;DHT22;6291;48.924;12.204;2023-04-15T21:36:07;7.10;99.90
12452;DHT22;6291;48.924;12.204;2023-04-15T21:41:11;7.10;99.90
12452;DHT22;6291;48.924;12.204;2023-04-15T21:46:15;7.10;99.90
12452;DHT22;6291;48.924;12.204;2023-04-15T21:51:25;7.10;99.90
12452;DHT22;6291;48.924;12.204;2023-04-15T21:56:29;7.10;1.00
12452;DHT22;6291;48.924;12.204;2023-04-15T22:01:33;7.10;1.00
12452;DHT22;6291;48.924;12.204;2023-04-15T22:06:37;7.10;1.00
12452;DHT22;6291;48.924;12.204;2023-04-15T22:11:40;7.10;1.00
12452;DHT22;6291;48.924;12.204;2023-04-15T22:16:45;7.10;59.40
12452;DHT22;6291;48.924;12.204;2023-04-15T22:21:49;7.00;99.90
12452;DHT22;6291;48.924;12.204;2023-04-15T22:26:52;7.00;99.90
12452;DHT22;6291;48.924;12.204;2023-04-15T22:31:57;7.10;99.90
12452;DHT22;6291;48.924;12.204;2023-04-15T22:37:01;7.00;99.90
12452;DHT22;6291;48.924;12.204;2023-04-15T22:42:05;7.00;99.90
12452;DHT22;6291;48.924;12.204;2023-04-15T22:47:10;7.00;99.90
12452;DHT22;6291;48.924;12.204;2023-04-15T22:52:14;7.00;99.90
12452;DHT22;6291;48.924;12.204;2023-04-15T22:57:31;7.00;99.90
12452;DHT22;6291;48.924;12.204;2023-04-15T23:02:35;7.00;99.90
12452;DHT22;6291;48.924;12.204;2023-04-15T23:07:39;7.00;99.90
12452;DHT22;6291;48.924;12.204;2023-04-15T23:12:42;7.00;99.90
12452;DHT22;6291;48.924;12.204;2023-04-15T23:17:47;7.00;99.90
12452;DHT22;6291;48.924;12.204;2023-04-15T23:22:50;7.00;99.90
12452;DHT22;6291;48.924;12.204;2023-04-15T23:27:54;7.00;99.90
12452;DHT22;6291;48.924;12.204;2023-04-15T23:32:58;7.10;99.90
12452;DHT22;6291;48.924;12.204;2023-04-15T23:38:02;7.00;99.90
12452;DHT22;6291;48.924;12.204;2023-04-15T23:43:05;7.00;99.90
12452;DHT22;6291;48.924;12.204;2023-04-15T23:48:10;7.00;99.90
12452;DHT22;6291;48.924;12.204;2023-04-15T23:53:13;7.00;99.90
12452;DHT22;6291;48.924;12.204;2023-04-15T23:58:17;7.00;99.90
